sensor_id;sensor_type;location;lat;lon;timestamp;P1;durP1;ratioP1;P2;durP2;ratioP2
9974;SDS011;5028;50.974;4.968;2022-10-03T00:01:20;15.97;;;5.80;;
9974;SDS011;5028;50.974;4.968;2022-10-03T00:04:13;17.50;;;6.37;;
9974;SDS011;5028;50.974;4.968;2022-10-03T00:06:56;17.43;;;6.30;;
9974;SDS011;5028;50.974;4.968;2022-10-03T00:09:42;16.90;;;5.63;;
9974;SDS011;5028;50.974;4.968;2022-10-03T00:12:34;15.57;;;5.47;;
9974;SDS011;5028;50.974;4.968;2022-10-03T00:15:20;13.23;;;5.87;;
9974;SDS011;5028;50.974;4.968;2022-10-03T00:18:00;13.30;;;5.90;;
9974;SDS011;5028;50.974;4.968;2022-10-03T00:21:00;15.03;;;6.03;;
9974;SDS011;5028;50.974;4.968;2022-10-03T00:23:39;16.87;;;5.67;;
9974;SDS011;5028;50.974;4.968;2022-10-03T00:26:23;15.93;;;6.00;;
9974;SDS011;5028;50.974;4.968;2022-10-03T00:29:20;20.47;;;6.57;;
9974;SDS011;5028;50.974;4.968;2022-10-03T00:32:18;17.47;;;6.17;;
9974;SDS011;5028;50.974;4.968;2022-10-03T00:35:00;21.57;;;6.57;;
9974;SDS011;5028;50.974;4.968;2022-10-03T00:37:53;16.73;;;6.43;;
9974;SDS011;5028;50.974;4.968;2022-10-03T00:40:35;16.23;;;6.07;;
9974;SDS011;5028;50.974;4.968;2022-10-03T00:49:59;16.27;;;5.60;;
9974;SDS011;5028;50.974;4.968;2022-10-03T00:55:46;21.70;;;6.07;;
9974;SDS011;5028;50.974;4.968;2022-10-03T00:58:43;13.83;;;5.87;;
9974;SDS011;5028;50.974;4.968;2022-10-03T01:01:23;12.17;;;5.13;;
9974;SDS011;5028;50.974;4.968;2022-10-03T01:04:20;17.03;;;5.43;;
9974;SDS011;5028;50.974;4.968;2022-10-03T01:07:14;19.17;;;4.93;;
9974;SDS011;5028;50.974;4.968;2022-10-03T01:10:08;11.63;;;4.83;;
9974;SDS011;5028;50.974;4.968;2022-10-03T01:12:53;14.87;;;5.47;;
9974;SDS011;5028;50.974;4.968;2022-10-03T01:15:41;14.23;;;5.27;;
9974;SDS011;5028;50.974;4.968;2022-10-03T01:18:21;17.33;;;5.80;;
9974;SDS011;5028;50.974;4.968;2022-10-03T01:21:05;17.93;;;5.97;;
9974;SDS011;5028;50.974;4.968;2022-10-03T01:23:51;13.70;;;4.90;;
9974;SDS011;5028;50.974;4.968;2022-10-03T01:26:45;13.70;;;5.30;;
9974;SDS011;5028;50.974;4.968;2022-10-03T01:29:21;12.30;;;4.80;;
9974;SDS011;5028;50.974;4.968;2022-10-03T01:32:33;13.60;;;5.33;;
9974;SDS011;5028;50.974;4.968;2022-10-03T01:35:10;16.20;;;5.60;;
9974;SDS011;5028;50.974;4.968;2022-10-03T01:37:57;14.53;;;5.87;;
9974;SDS011;5028;50.974;4.968;2022-10-03T01:40:34;18.73;;;5.70;;
9974;SDS011;5028;50.974;4.968;2022-10-03T01:43:14;14.57;;;5.20;;
9974;SDS011;5028;50.974;4.968;2022-10-03T01:46:03;13.87;;;5.57;;
9974;SDS011;5028;50.974;4.968;2022-10-03T01:48:52;13.90;;;5.17;;
9974;SDS011;5028;50.974;4.968;2022-10-03T01:51:28;15.63;;;5.17;;
9974;SDS011;5028;50.974;4.968;2022-10-03T01:54:12;16.87;;;5.83;;
9974;SDS011;5028;50.974;4.968;2022-10-03T01:56:51;21.97;;;6.00;;
9974;SDS011;5028;50.974;4.968;2022-10-03T01:59:33;16.60;;;5.73;;
9974;SDS011;5028;50.974;4.968;2022-10-03T02:02:11;15.70;;;5.47;;
9974;SDS011;5028;50.974;4.968;2022-10-03T02:04:57;14.83;;;5.43;;
9974;SDS011;5028;50.974;4.968;2022-10-03T02:07:34;9.43;;;4.90;;
9974;SDS011;5028;50.974;4.968;2022-10-03T02:10:21;15.47;;;5.30;;
9974;SDS011;5028;50.974;4.968;2022-10-03T02:13:00;13.97;;;5.27;;
9974;SDS011;5028;50.974;4.968;2022-10-03T02:15:46;14.53;;;5.13;;
9974;SDS011;5028;50.974;4.968;2022-10-03T02:18:25;18.47;;;5.47;;
9974;SDS011;5028;50.974;4.968;2022-10-03T02:21:10;11.93;;;4.80;;
9974;SDS011;5028;50.974;4.968;2022-10-03T02:23:44;14.57;;;5.17;;
9974;SDS011;5028;50.974;4.968;2022-10-03T02:26:32;17.10;;;5.37;;
9974;SDS011;5028;50.974;4.968;2022-10-03T02:29:34;14.10;;;5.00;;
9974;SDS011;5028;50.974;4.968;2022-10-03T02:32:51;12.00;;;5.07;;
9974;SDS011;5028;50.974;4.968;2022-10-03T02:35:48;19.37;;;5.37;;
9974;SDS011;5028;50.974;4.968;2022-10-03T02:42:11;14.10;;;4.87;;
9974;SDS011;5028;50.974;4.968;2022-10-03T02:51:43;14.27;;;4.73;;
9974;SDS011;5028;50.974;4.968;2022-10-03T03:00:52;11.53;;;5.00;;
9974;SDS011;5028;50.974;4.968;2022-10-03T03:03:40;12.93;;;5.57;;
9974;SDS011;5028;50.974;4.968;2022-10-03T03:06:34;17.57;;;6.13;;
9974;SDS011;5028;50.974;4.968;2022-10-03T03:12:32;10.00;;;5.03;;
9974;SDS011;5028;50.974;4.968;2022-10-03T03:18:42;13.37;;;6.00;;
9974;SDS011;5028;50.974;4.968;2022-10-03T03:21:23;18.43;;;5.67;;
9974;SDS011;5028;50.974;4.968;2022-10-03T03:30:15;12.77;;;5.50;;
9974;SDS011;5028;50.974;4.968;2022-10-03T03:32:58;15.90;;;5.77;;
9974;SDS011;5028;50.974;4.968;2022-10-03T03:35:37;13.63;;;5.37;;
9974;SDS011;5028;50.974;4.968;2022-10-03T03:38:24;14.17;;;5.43;;
9974;SDS011;5028;50.974;4.968;2022-10-03T03:47:34;17.10;;;6.23;;
9974;SDS011;5028;50.974;4.968;2022-10-03T03:50:23;15.00;;;6.60;;
9974;SDS011;5028;50.974;4.968;2022-10-03T03:53:12;17.97;;;6.70;;
9974;SDS011;5028;50.974;4.968;2022-10-03T03:56:10;15.73;;;6.63;;
9974;SDS011;5028;50.974;4.968;2022-10-03T03:59:09;18.53;;;6.57;;
9974;SDS011;5028;50.974;4.968;2022-10-03T04:04:55;19.57;;;6.90;;
9974;SDS011;5028;50.974;4.968;2022-10-03T04:07:51;12.23;;;6.70;;
9974;SDS011;5028;50.974;4.968;2022-10-03T04:10:35;15.87;;;6.37;;
9974;SDS011;5028;50.974;4.968;2022-10-03T04:13:23;15.60;;;6.70;;
9974;SDS011;5028;50.974;4.968;2022-10-03T04:16:19;13.03;;;6.80;;
9974;SDS011;5028;50.974;4.968;2022-10-03T04:19:24;17.60;;;5.93;;
9974;SDS011;5028;50.974;4.968;2022-10-03T04:25:18;11.70;;;6.20;;
9974;SDS011;5028;50.974;4.968;2022-10-03T04:28:22;14.30;;;5.83;;
9974;SDS011;5028;50.974;4.968;2022-10-03T04:31:14;13.57;;;5.87;;
9974;SDS011;5028;50.974;4.968;2022-10-03T04:34:01;15.43;;;5.77;;
9974;SDS011;5028;50.974;4.968;2022-10-03T04:42:52;12.93;;;5.70;;
9974;SDS011;5028;50.974;4.968;2022-10-03T04:45:37;15.80;;;6.27;;
9974;SDS011;5028;50.974;4.968;2022-10-03T04:48:21;18.23;;;7.30;;
9974;SDS011;5028;50.974;4.968;2022-10-03T04:51:04;19.17;;;7.03;;
9974;SDS011;5028;50.974;4.968;2022-10-03T04:53:40;17.73;;;7.20;;
9974;SDS011;5028;50.974;4.968;2022-10-03T04:56:28;18.57;;;6.73;;
9974;SDS011;5028;50.974;4.968;2022-10-03T04:59:17;15.87;;;6.47;;
9974;SDS011;5028;50.974;4.968;2022-10-03T05:02:24;13.73;;;6.17;;
9974;SDS011;5028;50.974;4.968;2022-10-03T05:05:28;15.60;;;7.10;;
9974;SDS011;5028;50.974;4.968;2022-10-03T05:08:30;16.83;;;6.70;;
9974;SDS011;5028;50.974;4.968;2022-10-03T05:11:08;18.57;;;6.97;;
9974;SDS011;5028;50.974;4.968;2022-10-03T05:14:01;17.40;;;6.83;;
9974;SDS011;5028;50.974;4.968;2022-10-03T05:16:38;17.30;;;6.90;;
9974;SDS011;5028;50.974;4.968;2022-10-03T05:19:34;17.10;;;6.33;;
9974;SDS011;5028;50.974;4.968;2022-10-03T05:22:21;18.07;;;6.73;;
9974;SDS011;5028;50.974;4.968;2022-10-03T05:25:10;15.37;;;6.40;;
9974;SDS011;5028;50.974;4.968;2022-10-03T05:27:50;15.70;;;6.93;;
9974;SDS011;5028;50.974;4.968;2022-10-03T05:30:38;16.40;;;6.43;;
9974;SDS011;5028;50.974;4.968;2022-10-03T05:33:13;11.93;;;6.20;;
9974;SDS011;5028;50.974;4.968;2022-10-03T05:36:01;13.47;;;6.10;;
9974;SDS011;5028;50.974;4.968;2022-10-03T05:38:50;15.23;;;6.40;;
9974;SDS011;5028;50.974;4.968;2022-10-03T05:41:34;16.70;;;6.10;;
9974;SDS011;5028;50.974;4.968;2022-10-03T05:44:07;16.47;;;6.03;;
9974;SDS011;5028;50.974;4.968;2022-10-03T05:46:56;19.30;;;6.70;;
9974;SDS011;5028;50.974;4.968;2022-10-03T05:49:30;17.13;;;7.17;;
9974;SDS011;5028;50.974;4.968;2022-10-03T05:52:26;17.43;;;7.37;;
9974;SDS011;5028;50.974;4.968;2022-10-03T05:55:11;18.00;;;7.07;;
9974;SDS011;5028;50.974;4.968;2022-10-03T06:04:04;15.17;;;6.57;;
9974;SDS011;5028;50.974;4.968;2022-10-03T06:07:04;15.10;;;6.40;;
9974;SDS011;5028;50.974;4.968;2022-10-03T06:09:58;12.77;;;5.57;;
9974;SDS011;5028;50.974;4.968;2022-10-03T06:13:08;15.73;;;6.40;;
9974;SDS011;5028;50.974;4.968;2022-10-03T06:31:27;15.53;;;5.70;;
9974;SDS011;5028;50.974;4.968;2022-10-03T06:34:35;9.03;;;5.20;;
9974;SDS011;5028;50.974;4.968;2022-10-03T06:40:56;10.60;;;5.10;;
9974;SDS011;5028;50.974;4.968;2022-10-03T06:44:10;13.13;;;5.60;;
9974;SDS011;5028;50.974;4.968;2022-10-03T06:47:03;17.63;;;5.77;;
9974;SDS011;5028;50.974;4.968;2022-10-03T07:12:22;13.73;;;5.50;;
9974;SDS011;5028;50.974;4.968;2022-10-03T07:28:24;10.73;;;5.40;;
9974;SDS011;5028;50.974;4.968;2022-10-03T07:31:23;15.00;;;6.10;;
9974;SDS011;5028;50.974;4.968;2022-10-03T07:34:09;8.33;;;4.90;;
9974;SDS011;5028;50.974;4.968;2022-10-03T07:37:10;14.60;;;6.47;;
9974;SDS011;5028;50.974;4.968;2022-10-03T07:40:23;14.23;;;6.40;;
9974;SDS011;5028;50.974;4.968;2022-10-03T07:43:27;13.33;;;6.40;;
9974;SDS011;5028;50.974;4.968;2022-10-03T07:46:28;14.07;;;6.47;;
9974;SDS011;5028;50.974;4.968;2022-10-03T07:55:20;13.20;;;6.67;;
9974;SDS011;5028;50.974;4.968;2022-10-03T07:58:04;15.17;;;6.73;;
9974;SDS011;5028;50.974;4.968;2022-10-03T08:01:18;14.90;;;6.93;;
9974;SDS011;5028;50.974;4.968;2022-10-03T08:07:28;14.63;;;7.00;;
9974;SDS011;5028;50.974;4.968;2022-10-03T08:10:20;13.30;;;6.57;;
9974;SDS011;5028;50.974;4.968;2022-10-03T08:13:30;13.20;;;6.87;;
9974;SDS011;5028;50.974;4.968;2022-10-03T08:16:20;14.30;;;6.70;;
9974;SDS011;5028;50.974;4.968;2022-10-03T08:19:14;13.93;;;6.77;;
9974;SDS011;5028;50.974;4.968;2022-10-03T08:21:55;15.27;;;7.10;;
9974;SDS011;5028;50.974;4.968;2022-10-03T08:24:48;11.17;;;5.93;;
9974;SDS011;5028;50.974;4.968;2022-10-03T08:27:38;14.30;;;6.27;;
9974;SDS011;5028;50.974;4.968;2022-10-03T08:30:26;11.40;;;6.60;;
9974;SDS011;5028;50.974;4.968;2022-10-03T08:33:13;12.37;;;6.50;;
9974;SDS011;5028;50.974;4.968;2022-10-03T08:36:16;12.50;;;5.70;;
9974;SDS011;5028;50.974;4.968;2022-10-03T08:39:11;13.83;;;5.80;;
9974;SDS011;5028;50.974;4.968;2022-10-03T08:54:38;10.40;;;4.87;;
9974;SDS011;5028;50.974;4.968;2022-10-03T08:57:31;11.73;;;4.53;;
9974;SDS011;5028;50.974;4.968;2022-10-03T09:00:27;14.47;;;4.87;;
9974;SDS011;5028;50.974;4.968;2022-10-03T09:06:40;11.17;;;4.90;;
9974;SDS011;5028;50.974;4.968;2022-10-03T09:19:21;10.07;;;3.77;;
9974;SDS011;5028;50.974;4.968;2022-10-03T09:22:20;12.57;;;3.30;;
9974;SDS011;5028;50.974;4.968;2022-10-03T09:25:26;13.57;;;3.70;;
9974;SDS011;5028;50.974;4.968;2022-10-03T09:28:16;10.83;;;3.67;;
9974;SDS011;5028;50.974;4.968;2022-10-03T09:31:17;9.77;;;3.50;;
9974;SDS011;5028;50.974;4.968;2022-10-03T09:34:21;11.73;;;3.70;;
9974;SDS011;5028;50.974;4.968;2022-10-03T09:37:23;9.93;;;3.50;;
9974;SDS011;5028;50.974;4.968;2022-10-03T09:40:30;12.37;;;3.40;;
9974;SDS011;5028;50.974;4.968;2022-10-03T09:53:23;11.17;;;3.37;;
9974;SDS011;5028;50.974;4.968;2022-10-03T09:59:28;7.23;;;2.67;;
9974;SDS011;5028;50.974;4.968;2022-10-03T10:02:34;11.90;;;2.50;;
9974;SDS011;5028;50.974;4.968;2022-10-03T10:05:36;8.53;;;2.97;;
9974;SDS011;5028;50.974;4.968;2022-10-03T10:12:01;6.03;;;2.50;;
9974;SDS011;5028;50.974;4.968;2022-10-03T10:15:03;8.37;;;2.70;;
9974;SDS011;5028;50.974;4.968;2022-10-03T10:21:23;5.33;;;2.30;;
9974;SDS011;5028;50.974;4.968;2022-10-03T10:24:17;8.30;;;2.30;;
9974;SDS011;5028;50.974;4.968;2022-10-03T10:27:18;8.70;;;2.20;;
9974;SDS011;5028;50.974;4.968;2022-10-03T10:33:22;5.77;;;2.20;;
9974;SDS011;5028;50.974;4.968;2022-10-03T10:39:28;8.10;;;2.47;;
9974;SDS011;5028;50.974;4.968;2022-10-03T10:55:38;5.67;;;1.53;;
9974;SDS011;5028;50.974;4.968;2022-10-03T10:58:40;6.70;;;2.30;;
9974;SDS011;5028;50.974;4.968;2022-10-03T11:08:34;6.70;;;1.87;;
9974;SDS011;5028;50.974;4.968;2022-10-03T11:15:10;5.23;;;1.50;;
9974;SDS011;5028;50.974;4.968;2022-10-03T11:18:08;3.83;;;1.53;;
9974;SDS011;5028;50.974;4.968;2022-10-03T11:21:26;7.67;;;2.03;;
9974;SDS011;5028;50.974;4.968;2022-10-03T11:24:16;4.37;;;1.83;;
9974;SDS011;5028;50.974;4.968;2022-10-03T11:27:36;4.77;;;1.70;;
9974;SDS011;5028;50.974;4.968;2022-10-03T11:30:38;5.80;;;1.67;;
9974;SDS011;5028;50.974;4.968;2022-10-03T11:37:07;4.07;;;1.73;;
9974;SDS011;5028;50.974;4.968;2022-10-03T11:39:56;4.90;;;1.70;;
9974;SDS011;5028;50.974;4.968;2022-10-03T11:42:39;5.10;;;1.73;;
9974;SDS011;5028;50.974;4.968;2022-10-03T11:45:27;5.60;;;1.63;;
9974;SDS011;5028;50.974;4.968;2022-10-03T11:48:07;6.10;;;1.60;;
9974;SDS011;5028;50.974;4.968;2022-10-03T11:50:58;6.47;;;2.20;;
9974;SDS011;5028;50.974;4.968;2022-10-03T11:53:39;5.53;;;1.70;;
9974;SDS011;5028;50.974;4.968;2022-10-03T11:56:42;5.53;;;1.80;;
9974;SDS011;5028;50.974;4.968;2022-10-03T11:59:30;7.73;;;2.40;;
9974;SDS011;5028;50.974;4.968;2022-10-03T12:02:31;5.80;;;1.77;;
9974;SDS011;5028;50.974;4.968;2022-10-03T12:05:42;3.97;;;1.70;;
9974;SDS011;5028;50.974;4.968;2022-10-03T12:08:32;5.13;;;1.90;;
9974;SDS011;5028;50.974;4.968;2022-10-03T12:11:29;7.93;;;1.93;;
9974;SDS011;5028;50.974;4.968;2022-10-03T12:14:11;5.43;;;2.17;;
9974;SDS011;5028;50.974;4.968;2022-10-03T12:17:01;7.37;;;1.97;;
9974;SDS011;5028;50.974;4.968;2022-10-03T12:19:36;6.60;;;1.93;;
9974;SDS011;5028;50.974;4.968;2022-10-03T12:22:22;4.23;;;1.60;;
9974;SDS011;5028;50.974;4.968;2022-10-03T12:25:19;6.33;;;1.70;;
9974;SDS011;5028;50.974;4.968;2022-10-03T12:27:59;7.67;;;2.20;;
9974;SDS011;5028;50.974;4.968;2022-10-03T12:30:39;5.03;;;2.13;;
9974;SDS011;5028;50.974;4.968;2022-10-03T12:33:23;8.50;;;1.80;;
9974;SDS011;5028;50.974;4.968;2022-10-03T12:36:03;7.97;;;2.40;;
9974;SDS011;5028;50.974;4.968;2022-10-03T12:38:53;18.00;;;3.07;;
9974;SDS011;5028;50.974;4.968;2022-10-03T12:41:38;5.77;;;2.03;;
9974;SDS011;5028;50.974;4.968;2022-10-03T12:44:37;6.90;;;1.87;;
9974;SDS011;5028;50.974;4.968;2022-10-03T12:47:22;3.13;;;1.40;;
9974;SDS011;5028;50.974;4.968;2022-10-03T12:50:24;6.43;;;1.70;;
9974;SDS011;5028;50.974;4.968;2022-10-03T12:53:23;6.20;;;1.93;;
9974;SDS011;5028;50.974;4.968;2022-10-03T12:56:06;4.57;;;1.60;;
9974;SDS011;5028;50.974;4.968;2022-10-03T12:58:43;4.20;;;1.60;;
9974;SDS011;5028;50.974;4.968;2022-10-03T13:01:33;4.07;;;1.67;;
9974;SDS011;5028;50.974;4.968;2022-10-03T13:04:15;5.27;;;1.83;;
9974;SDS011;5028;50.974;4.968;2022-10-03T13:07:07;5.23;;;1.70;;
9974;SDS011;5028;50.974;4.968;2022-10-03T13:09:59;7.57;;;2.00;;
9974;SDS011;5028;50.974;4.968;2022-10-03T13:12:46;3.83;;;1.53;;
9974;SDS011;5028;50.974;4.968;2022-10-03T13:15:35;4.43;;;1.50;;
9974;SDS011;5028;50.974;4.968;2022-10-03T13:21:14;5.47;;;1.60;;
9974;SDS011;5028;50.974;4.968;2022-10-03T13:24:17;5.83;;;1.70;;
9974;SDS011;5028;50.974;4.968;2022-10-03T13:26:57;6.07;;;1.93;;
9974;SDS011;5028;50.974;4.968;2022-10-03T13:29:42;4.27;;;1.57;;
9974;SDS011;5028;50.974;4.968;2022-10-03T13:32:17;4.53;;;1.70;;
9974;SDS011;5028;50.974;4.968;2022-10-03T13:35:09;5.20;;;1.73;;
9974;SDS011;5028;50.974;4.968;2022-10-03T13:41:28;3.30;;;1.40;;
9974;SDS011;5028;50.974;4.968;2022-10-03T13:44:33;3.73;;;1.40;;
9974;SDS011;5028;50.974;4.968;2022-10-03T13:47:07;4.43;;;2.00;;
9974;SDS011;5028;50.974;4.968;2022-10-03T13:49:58;6.20;;;1.60;;
9974;SDS011;5028;50.974;4.968;2022-10-03T13:52:34;5.03;;;1.70;;
9974;SDS011;5028;50.974;4.968;2022-10-03T13:55:13;6.03;;;1.87;;
9974;SDS011;5028;50.974;4.968;2022-10-03T13:57:52;3.97;;;1.70;;
9974;SDS011;5028;50.974;4.968;2022-10-03T14:00:41;5.17;;;1.80;;
9974;SDS011;5028;50.974;4.968;2022-10-03T14:03:38;6.53;;;2.00;;
9974;SDS011;5028;50.974;4.968;2022-10-03T14:06:24;4.90;;;1.70;;
9974;SDS011;5028;50.974;4.968;2022-10-03T14:12:21;5.97;;;1.90;;
9974;SDS011;5028;50.974;4.968;2022-10-03T14:15:19;4.27;;;1.30;;
9974;SDS011;5028;50.974;4.968;2022-10-03T14:18:08;3.87;;;1.47;;
9974;SDS011;5028;50.974;4.968;2022-10-03T14:24:02;3.57;;;1.40;;
9974;SDS011;5028;50.974;4.968;2022-10-03T14:26:41;4.77;;;1.70;;
9974;SDS011;5028;50.974;4.968;2022-10-03T14:29:22;4.70;;;1.50;;
9974;SDS011;5028;50.974;4.968;2022-10-03T14:31:56;4.77;;;1.53;;
9974;SDS011;5028;50.974;4.968;2022-10-03T14:34:57;6.27;;;1.40;;
9974;SDS011;5028;50.974;4.968;2022-10-03T14:37:39;3.80;;;1.50;;
9974;SDS011;5028;50.974;4.968;2022-10-03T14:40:15;3.83;;;1.60;;
9974;SDS011;5028;50.974;4.968;2022-10-03T14:43:01;6.33;;;2.60;;
9974;SDS011;5028;50.974;4.968;2022-10-03T14:45:47;7.73;;;2.47;;
9974;SDS011;5028;50.974;4.968;2022-10-03T14:48:26;6.17;;;3.00;;
9974;SDS011;5028;50.974;4.968;2022-10-03T14:50:59;6.37;;;2.70;;
9974;SDS011;5028;50.974;4.968;2022-10-03T14:53:44;8.57;;;2.90;;
9974;SDS011;5028;50.974;4.968;2022-10-03T14:56:18;10.03;;;3.10;;
9974;SDS011;5028;50.974;4.968;2022-10-03T14:58:58;8.83;;;2.87;;
9974;SDS011;5028;50.974;4.968;2022-10-03T15:01:40;7.90;;;2.87;;
9974;SDS011;5028;50.974;4.968;2022-10-03T15:04:28;10.03;;;2.73;;
9974;SDS011;5028;50.974;4.968;2022-10-03T15:06:59;8.13;;;2.90;;
9974;SDS011;5028;50.974;4.968;2022-10-03T15:09:40;6.53;;;2.73;;
9974;SDS011;5028;50.974;4.968;2022-10-03T15:12:30;6.97;;;2.33;;
9974;SDS011;5028;50.974;4.968;2022-10-03T15:15:09;7.50;;;2.70;;
9974;SDS011;5028;50.974;4.968;2022-10-03T15:17:45;6.50;;;2.83;;
9974;SDS011;5028;50.974;4.968;2022-10-03T15:20:23;6.17;;;3.00;;
9974;SDS011;5028;50.974;4.968;2022-10-03T15:22:57;5.90;;;2.60;;
9974;SDS011;5028;50.974;4.968;2022-10-03T15:25:34;6.20;;;2.70;;
9974;SDS011;5028;50.974;4.968;2022-10-03T15:28:04;8.53;;;2.97;;
9974;SDS011;5028;50.974;4.968;2022-10-03T15:30:44;7.63;;;2.90;;
9974;SDS011;5028;50.974;4.968;2022-10-03T15:33:14;6.67;;;3.03;;
9974;SDS011;5028;50.974;4.968;2022-10-03T15:35:52;5.00;;;2.57;;
9974;SDS011;5028;50.974;4.968;2022-10-03T15:38:25;8.73;;;3.13;;
9974;SDS011;5028;50.974;4.968;2022-10-03T15:41:10;7.03;;;3.07;;
9974;SDS011;5028;50.974;4.968;2022-10-03T15:43:42;7.57;;;3.13;;
9974;SDS011;5028;50.974;4.968;2022-10-03T15:46:28;7.00;;;2.93;;
9974;SDS011;5028;50.974;4.968;2022-10-03T15:49:02;6.07;;;3.10;;
9974;SDS011;5028;50.974;4.968;2022-10-03T15:51:40;5.73;;;3.03;;
9974;SDS011;5028;50.974;4.968;2022-10-03T15:54:11;6.57;;;2.77;;
9974;SDS011;5028;50.974;4.968;2022-10-03T15:56:52;8.77;;;3.30;;
9974;SDS011;5028;50.974;4.968;2022-10-03T15:59:24;8.83;;;2.90;;
9974;SDS011;5028;50.974;4.968;2022-10-03T16:02:05;7.17;;;3.17;;
9974;SDS011;5028;50.974;4.968;2022-10-03T16:04:51;8.30;;;3.00;;
9974;SDS011;5028;50.974;4.968;2022-10-03T16:07:24;6.07;;;2.83;;
9974;SDS011;5028;50.974;4.968;2022-10-03T16:10:11;5.87;;;2.60;;
9974;SDS011;5028;50.974;4.968;2022-10-03T16:13:00;7.53;;;3.20;;
9974;SDS011;5028;50.974;4.968;2022-10-03T16:15:45;6.27;;;2.43;;
9974;SDS011;5028;50.974;4.968;2022-10-03T16:21:30;6.03;;;2.93;;
9974;SDS011;5028;50.974;4.968;2022-10-03T16:24:14;8.40;;;2.87;;
9974;SDS011;5028;50.974;4.968;2022-10-03T16:26:53;5.40;;;3.27;;
9974;SDS011;5028;50.974;4.968;2022-10-03T16:29:26;7.37;;;2.90;;
9974;SDS011;5028;50.974;4.968;2022-10-03T16:32:05;9.93;;;3.30;;
9974;SDS011;5028;50.974;4.968;2022-10-03T16:34:40;8.20;;;3.63;;
9974;SDS011;5028;50.974;4.968;2022-10-03T16:37:18;8.90;;;4.40;;
9974;SDS011;5028;50.974;4.968;2022-10-03T16:39:54;8.83;;;4.93;;
9974;SDS011;5028;50.974;4.968;2022-10-03T16:42:35;6.03;;;3.60;;
9974;SDS011;5028;50.974;4.968;2022-10-03T16:45:16;6.03;;;3.43;;
9974;SDS011;5028;50.974;4.968;2022-10-03T16:47:56;8.77;;;3.53;;
9974;SDS011;5028;50.974;4.968;2022-10-03T16:50:47;7.40;;;3.93;;
9974;SDS011;5028;50.974;4.968;2022-10-03T16:53:25;8.07;;;4.07;;
9974;SDS011;5028;50.974;4.968;2022-10-03T16:55:56;6.90;;;3.90;;
9974;SDS011;5028;50.974;4.968;2022-10-03T16:58:39;5.27;;;3.60;;
9974;SDS011;5028;50.974;4.968;2022-10-03T17:01:12;5.27;;;3.20;;
9974;SDS011;5028;50.974;4.968;2022-10-03T17:03:54;8.50;;;3.30;;
9974;SDS011;5028;50.974;4.968;2022-10-03T17:06:29;12.33;;;3.47;;
9974;SDS011;5028;50.974;4.968;2022-10-03T17:09:16;7.13;;;3.13;;
9974;SDS011;5028;50.974;4.968;2022-10-03T17:12:06;6.50;;;3.13;;
9974;SDS011;5028;50.974;4.968;2022-10-03T17:14:47;6.30;;;3.03;;
9974;SDS011;5028;50.974;4.968;2022-10-03T17:17:22;11.50;;;4.00;;
9974;SDS011;5028;50.974;4.968;2022-10-03T17:20:03;8.70;;;4.37;;
9974;SDS011;5028;50.974;4.968;2022-10-03T17:22:36;8.97;;;4.70;;
9974;SDS011;5028;50.974;4.968;2022-10-03T17:25:31;8.43;;;4.07;;
9974;SDS011;5028;50.974;4.968;2022-10-03T17:28:04;6.60;;;3.93;;
9974;SDS011;5028;50.974;4.968;2022-10-03T17:30:46;5.73;;;3.50;;
9974;SDS011;5028;50.974;4.968;2022-10-03T17:33:17;5.73;;;3.97;;
9974;SDS011;5028;50.974;4.968;2022-10-03T17:36:01;7.77;;;4.07;;
9974;SDS011;5028;50.974;4.968;2022-10-03T17:38:50;8.37;;;3.87;;
9974;SDS011;5028;50.974;4.968;2022-10-03T17:41:33;7.47;;;4.00;;
9974;SDS011;5028;50.974;4.968;2022-10-03T17:44:13;7.20;;;3.30;;
9974;SDS011;5028;50.974;4.968;2022-10-03T17:46:57;10.63;;;3.73;;
9974;SDS011;5028;50.974;4.968;2022-10-03T17:49:38;6.60;;;3.10;;
9974;SDS011;5028;50.974;4.968;2022-10-03T17:52:19;8.23;;;3.87;;
9974;SDS011;5028;50.974;4.968;2022-10-03T17:54:52;8.37;;;3.67;;
9974;SDS011;5028;50.974;4.968;2022-10-03T17:57:30;12.93;;;3.87;;
9974;SDS011;5028;50.974;4.968;2022-10-03T18:00:04;6.17;;;3.40;;
9974;SDS011;5028;50.974;4.968;2022-10-03T18:02:43;14.07;;;4.10;;
9974;SDS011;5028;50.974;4.968;2022-10-03T18:05:18;9.97;;;4.03;;
9974;SDS011;5028;50.974;4.968;2022-10-03T18:07:59;7.47;;;3.37;;
9974;SDS011;5028;50.974;4.968;2022-10-03T18:10:40;6.63;;;4.00;;
9974;SDS011;5028;50.974;4.968;2022-10-03T18:13:23;10.33;;;4.40;;
9974;SDS011;5028;50.974;4.968;2022-10-03T18:16:04;9.10;;;4.47;;
9974;SDS011;5028;50.974;4.968;2022-10-03T18:19:14;11.03;;;5.00;;
9974;SDS011;5028;50.974;4.968;2022-10-03T18:21:54;8.03;;;4.43;;
9974;SDS011;5028;50.974;4.968;2022-10-03T18:28:02;9.17;;;5.10;;
9974;SDS011;5028;50.974;4.968;2022-10-03T18:30:54;10.90;;;5.20;;
9974;SDS011;5028;50.974;4.968;2022-10-03T18:33:27;9.83;;;5.30;;
9974;SDS011;5028;50.974;4.968;2022-10-03T18:36:06;6.83;;;5.07;;
9974;SDS011;5028;50.974;4.968;2022-10-03T18:38:41;10.40;;;5.17;;
9974;SDS011;5028;50.974;4.968;2022-10-03T18:41:18;8.17;;;5.23;;
9974;SDS011;5028;50.974;4.968;2022-10-03T18:43:52;13.40;;;8.90;;
9974;SDS011;5028;50.974;4.968;2022-10-03T18:46:32;14.87;;;11.13;;
9974;SDS011;5028;50.974;4.968;2022-10-03T18:49:10;12.73;;;8.60;;
9974;SDS011;5028;50.974;4.968;2022-10-03T18:52:03;15.73;;;11.50;;
9974;SDS011;5028;50.974;4.968;2022-10-03T18:54:39;17.63;;;11.67;;
9974;SDS011;5028;50.974;4.968;2022-10-03T18:57:25;13.93;;;9.20;;
9974;SDS011;5028;50.974;4.968;2022-10-03T19:00:04;13.97;;;8.57;;
9974;SDS011;5028;50.974;4.968;2022-10-03T19:02:42;12.33;;;7.80;;
9974;SDS011;5028;50.974;4.968;2022-10-03T19:05:14;10.43;;;7.17;;
9974;SDS011;5028;50.974;4.968;2022-10-03T19:07:53;14.93;;;6.80;;
9974;SDS011;5028;50.974;4.968;2022-10-03T19:10:37;9.57;;;5.40;;
9974;SDS011;5028;50.974;4.968;2022-10-03T19:13:24;7.13;;;6.13;;
9974;SDS011;5028;50.974;4.968;2022-10-03T19:19:02;10.07;;;7.20;;
9974;SDS011;5028;50.974;4.968;2022-10-03T19:21:35;8.77;;;6.40;;
9974;SDS011;5028;50.974;4.968;2022-10-03T19:24:13;8.77;;;6.60;;
9974;SDS011;5028;50.974;4.968;2022-10-03T19:27:05;12.13;;;8.30;;
9974;SDS011;5028;50.974;4.968;2022-10-03T19:29:46;14.97;;;6.07;;
9974;SDS011;5028;50.974;4.968;2022-10-03T19:32:20;6.90;;;4.67;;
9974;SDS011;5028;50.974;4.968;2022-10-03T19:35:03;12.37;;;5.87;;
9974;SDS011;5028;50.974;4.968;2022-10-03T19:37:35;10.87;;;5.30;;
9974;SDS011;5028;50.974;4.968;2022-10-03T19:40:20;12.30;;;5.60;;
9974;SDS011;5028;50.974;4.968;2022-10-03T19:43:22;16.77;;;6.00;;
9974;SDS011;5028;50.974;4.968;2022-10-03T19:46:10;10.10;;;5.90;;
9974;SDS011;5028;50.974;4.968;2022-10-03T19:49:03;12.13;;;5.83;;
9974;SDS011;5028;50.974;4.968;2022-10-03T19:51:47;10.87;;;5.23;;
9974;SDS011;5028;50.974;4.968;2022-10-03T19:54:29;10.80;;;5.87;;
9974;SDS011;5028;50.974;4.968;2022-10-03T19:57:00;8.77;;;5.17;;
9974;SDS011;5028;50.974;4.968;2022-10-03T19:59:41;9.53;;;5.63;;
9974;SDS011;5028;50.974;4.968;2022-10-03T20:02:22;10.33;;;5.83;;
9974;SDS011;5028;50.974;4.968;2022-10-03T20:04:53;10.97;;;5.90;;
9974;SDS011;5028;50.974;4.968;2022-10-03T20:07:35;10.87;;;6.70;;
9974;SDS011;5028;50.974;4.968;2022-10-03T20:10:28;10.30;;;5.80;;
9974;SDS011;5028;50.974;4.968;2022-10-03T20:13:20;10.13;;;5.57;;
9974;SDS011;5028;50.974;4.968;2022-10-03T20:15:55;10.23;;;6.00;;
9974;SDS011;5028;50.974;4.968;2022-10-03T20:18:28;9.37;;;5.70;;
9974;SDS011;5028;50.974;4.968;2022-10-03T20:21:09;11.33;;;6.20;;
9974;SDS011;5028;50.974;4.968;2022-10-03T20:23:39;9.30;;;5.73;;
9974;SDS011;5028;50.974;4.968;2022-10-03T20:26:17;10.03;;;5.23;;
9974;SDS011;5028;50.974;4.968;2022-10-03T20:29:05;9.83;;;5.30;;
9974;SDS011;5028;50.974;4.968;2022-10-03T20:31:57;10.37;;;5.60;;
9974;SDS011;5028;50.974;4.968;2022-10-03T20:34:27;9.80;;;5.43;;
9974;SDS011;5028;50.974;4.968;2022-10-03T20:37:16;13.00;;;5.60;;
9974;SDS011;5028;50.974;4.968;2022-10-03T20:40:02;9.73;;;5.57;;
9974;SDS011;5028;50.974;4.968;2022-10-03T20:43:26;13.83;;;5.97;;
9974;SDS011;5028;50.974;4.968;2022-10-03T20:46:12;11.30;;;6.30;;
9974;SDS011;5028;50.974;4.968;2022-10-03T20:51:56;8.87;;;5.83;;
9974;SDS011;5028;50.974;4.968;2022-10-03T20:54:35;11.17;;;6.77;;
9974;SDS011;5028;50.974;4.968;2022-10-03T20:57:16;13.17;;;7.10;;
9974;SDS011;5028;50.974;4.968;2022-10-03T20:59:55;10.20;;;7.33;;